sensor_id;sensor_type;location;lat;lon;timestamp;temperature;humidity
10566;DHT22;5331;48.148;16.326;2023-12-29T00:01:30;2.90;1.00
10566;DHT22;5331;48.148;16.326;2023-12-29T00:03:57;2.80;1.00
10566;DHT22;5331;48.148;16.326;2023-12-29T00:06:23;2.80;1.00
10566;DHT22;5331;48.148;16.326;2023-12-29T00:08:49;2.70;1.00
10566;DHT22;5331;48.148;16.326;2023-12-29T00:11:19;2.60;1.00
10566;DHT22;5331;48.148;16.326;2023-12-29T00:13:46;2.70;1.00
10566;DHT22;5331;48.148;16.326;2023-12-29T00:16:12;2.70;1.00
10566;DHT22;5331;48.148;16.326;2023-12-29T00:34:06;3.00;1.00
10566;DHT22;5331;48.148;16.326;2023-12-29T00:36:33;2.90;1.00
10566;DHT22;5331;48.148;16.326;2023-12-29T00:38:59;2.80;1.00
10566;DHT22;5331;48.148;16.326;2023-12-29T00:41:25;2.80;1.00
10566;DHT22;5331;48.148;16.326;2023-12-29T00:43:51;2.90;1.00
10566;DHT22;5331;48.148;16.326;2023-12-29T00:46:17;2.80;1.00
10566;DHT22;5331;48.148;16.326;2023-12-29T00:48:44;2.80;1.00
10566;DHT22;5331;48.148;16.326;2023-12-29T00:51:11;2.80;1.00
10566;DHT22;5331;48.148;16.326;2023-12-29T01:09:06;3.20;1.00
10566;DHT22;5331;48.148;16.326;2023-12-29T01:11:33;3.10;1.00
10566;DHT22;5331;48.148;16.326;2023-12-29T01:14:00;3.10;1.00
10566;DHT22;5331;48.148;16.326;2023-12-29T01:16:26;3.10;1.00
10566;DHT22;5331;48.148;16.326;2023-12-29T01:18:52;3.00;1.00
10566;DHT22;5331;48.148;16.326;2023-12-29T01:21:18;3.00;1.00
10566;DHT22;5331;48.148;16.326;2023-12-29T01:23:45;3.00;1.00
10566;DHT22;5331;48.148;16.326;2023-12-29T01:41:38;3.30;1.00
10566;DHT22;5331;48.148;16.326;2023-12-29T01:44:20;3.20;1.00
10566;DHT22;5331;48.148;16.326;2023-12-29T01:46:48;3.20;1.00
10566;DHT22;5331;48.148;16.326;2023-12-29T01:49:16;3.10;1.00
10566;DHT22;5331;48.148;16.326;2023-12-29T01:51:42;3.10;1.00
10566;DHT22;5331;48.148;16.326;2023-12-29T01:54:10;3.00;1.00
10566;DHT22;5331;48.148;16.326;2023-12-29T01:56:38;3.00;1.00
10566;DHT22;5331;48.148;16.326;2023-12-29T01:59:05;2.90;1.00
10566;DHT22;5331;48.148;16.326;2023-12-29T02:17:03;3.20;1.00
10566;DHT22;5331;48.148;16.326;2023-12-29T02:19:38;3.00;1.00
10566;DHT22;5331;48.148;16.326;2023-12-29T02:22:05;3.00;1.00
10566;DHT22;5331;48.148;16.326;2023-12-29T02:24:33;3.00;1.00
10566;DHT22;5331;48.148;16.326;2023-12-29T02:27:07;3.00;1.00
10566;DHT22;5331;48.148;16.326;2023-12-29T02:29:38;3.00;1.00
10566;DHT22;5331;48.148;16.326;2023-12-29T02:32:08;3.00;1.00
10566;DHT22;5331;48.148;16.326;2023-12-29T02:34:38;2.90;1.00
10566;DHT22;5331;48.148;16.326;2023-12-29T02:47:54;3.40;1.00
10566;DHT22;5331;48.148;16.326;2023-12-29T02:50:21;3.30;1.00
10566;DHT22;5331;48.148;16.326;2023-12-29T02:52:47;3.20;1.00
10566;DHT22;5331;48.148;16.326;2023-12-29T02:55:13;3.20;1.00
10566;DHT22;5331;48.148;16.326;2023-12-29T02:57:39;3.10;1.00
10566;DHT22;5331;48.148;16.326;2023-12-29T03:00:06;3.20;1.00
10566;DHT22;5331;48.148;16.326;2023-12-29T03:02:34;3.20;1.00
10566;DHT22;5331;48.148;16.326;2023-12-29T03:20:29;3.30;1.00
10566;DHT22;5331;48.148;16.326;2023-12-29T03:22:55;3.30;1.00
10566;DHT22;5331;48.148;16.326;2023-12-29T03:25:22;3.30;1.00
10566;DHT22;5331;48.148;16.326;2023-12-29T03:27:48;3.30;1.00
10566;DHT22;5331;48.148;16.326;2023-12-29T03:30:14;3.30;1.00
10566;DHT22;5331;48.148;16.326;2023-12-29T03:32:41;3.30;1.00
10566;DHT22;5331;48.148;16.326;2023-12-29T03:35:07;3.30;1.00
10566;DHT22;5331;48.148;16.326;2023-12-29T03:53:00;3.50;1.00
10566;DHT22;5331;48.148;16.326;2023-12-29T03:55:26;3.40;1.00
10566;DHT22;5331;48.148;16.326;2023-12-29T03:57:52;3.40;1.00
10566;DHT22;5331;48.148;16.326;2023-12-29T04:00:19;3.40;1.00
10566;DHT22;5331;48.148;16.326;2023-12-29T04:02:45;3.40;1.00
10566;DHT22;5331;48.148;16.326;2023-12-29T04:05:11;3.40;1.00
10566;DHT22;5331;48.148;16.326;2023-12-29T04:07:39;3.40;1.00
10566;DHT22;5331;48.148;16.326;2023-12-29T04:25:35;3.80;1.00
10566;DHT22;5331;48.148;16.326;2023-12-29T04:28:01;3.70;1.00
10566;DHT22;5331;48.148;16.326;2023-12-29T04:30:28;3.60;1.00
10566;DHT22;5331;48.148;16.326;2023-12-29T04:32:54;3.60;1.00
10566;DHT22;5331;48.148;16.326;2023-12-29T04:35:20;3.60;1.00
10566;DHT22;5331;48.148;16.326;2023-12-29T04:37:46;3.60;1.00
10566;DHT22;5331;48.148;16.326;2023-12-29T04:40:13;3.60;1.00
10566;DHT22;5331;48.148;16.326;2023-12-29T04:58:08;3.90;1.00
10566;DHT22;5331;48.148;16.326;2023-12-29T05:00:34;3.80;1.00
10566;DHT22;5331;48.148;16.326;2023-12-29T05:03:00;3.80;1.00
10566;DHT22;5331;48.148;16.326;2023-12-29T05:05:27;3.70;1.00
10566;DHT22;5331;48.148;16.326;2023-12-29T05:07:53;3.70;1.00
10566;DHT22;5331;48.148;16.326;2023-12-29T05:10:19;3.70;1.00
10566;DHT22;5331;48.148;16.326;2023-12-29T05:12:45;3.70;1.00
10566;DHT22;5331;48.148;16.326;2023-12-29T05:15:13;3.70;1.00
10566;DHT22;5331;48.148;16.326;2023-12-29T05:33:08;3.80;1.00
10566;DHT22;5331;48.148;16.326;2023-12-29T05:35:34;3.70;1.00
10566;DHT22;5331;48.148;16.326;2023-12-29T05:38:01;3.60;1.00
10566;DHT22;5331;48.148;16.326;2023-12-29T05:40:27;3.60;1.00
10566;DHT22;5331;48.148;16.326;2023-12-29T05:42:54;3.50;1.00
10566;DHT22;5331;48.148;16.326;2023-12-29T05:45:20;3.50;1.00
10566;DHT22;5331;48.148;16.326;2023-12-29T05:47:46;3.50;1.00
10566;DHT22;5331;48.148;16.326;2023-12-29T06:03:16;3.30;1.00
10566;DHT22;5331;48.148;16.326;2023-12-29T06:05:42;3.30;1.00
10566;DHT22;5331;48.148;16.326;2023-12-29T06:08:08;3.30;1.00
10566;DHT22;5331;48.148;16.326;2023-12-29T06:10:36;3.20;1.00
10566;DHT22;5331;48.148;16.326;2023-12-29T06:13:02;3.10;1.00
10566;DHT22;5331;48.148;16.326;2023-12-29T06:15:29;3.10;1.00
10566;DHT22;5331;48.148;16.326;2023-12-29T06:17:55;3.00;1.00
10566;DHT22;5331;48.148;16.326;2023-12-29T06:38:12;3.00;1.00
10566;DHT22;5331;48.148;16.326;2023-12-29T06:40:39;2.90;1.00
10566;DHT22;5331;48.148;16.326;2023-12-29T06:43:05;2.70;1.00
10566;DHT22;5331;48.148;16.326;2023-12-29T06:45:31;2.60;1.00
10566;DHT22;5331;48.148;16.326;2023-12-29T06:47:57;2.60;1.00
10566;DHT22;5331;48.148;16.326;2023-12-29T06:50:24;2.50;1.00
10566;DHT22;5331;48.148;16.326;2023-12-29T06:52:50;2.50;1.00
10566;DHT22;5331;48.148;16.326;2023-12-29T06:55:17;2.50;1.00
10566;DHT22;5331;48.148;16.326;2023-12-29T07:13:11;2.80;1.00
10566;DHT22;5331;48.148;16.326;2023-12-29T07:15:38;2.70;1.00
10566;DHT22;5331;48.148;16.326;2023-12-29T07:18:04;2.70;1.00
10566;DHT22;5331;48.148;16.326;2023-12-29T07:20:31;2.70;1.00
10566;DHT22;5331;48.148;16.326;2023-12-29T07:22:57;2.70;1.00
10566;DHT22;5331;48.148;16.326;2023-12-29T07:25:23;2.90;1.00
10566;DHT22;5331;48.148;16.326;2023-12-29T07:27:49;3.10;1.00
10566;DHT22;5331;48.148;16.326;2023-12-29T07:30:17;3.20;1.00
10566;DHT22;5331;48.148;16.326;2023-12-29T07:48:12;3.60;1.00
10566;DHT22;5331;48.148;16.326;2023-12-29T07:50:38;3.60;1.00
10566;DHT22;5331;48.148;16.326;2023-12-29T07:53:04;3.70;1.00
10566;DHT22;5331;48.148;16.326;2023-12-29T07:55:31;3.80;1.00
10566;DHT22;5331;48.148;16.326;2023-12-29T07:57:57;4.00;1.00
10566;DHT22;5331;48.148;16.326;2023-12-29T08:00:24;4.10;1.00
10566;DHT22;5331;48.148;16.326;2023-12-29T08:02:50;4.30;1.00
10566;DHT22;5331;48.148;16.326;2023-12-29T08:18:21;5.90;1.00
10566;DHT22;5331;48.148;16.326;2023-12-29T08:20:47;6.00;1.00
10566;DHT22;5331;48.148;16.326;2023-12-29T08:23:13;6.10;1.00
10566;DHT22;5331;48.148;16.326;2023-12-29T08:25:39;6.30;1.00
10566;DHT22;5331;48.148;16.326;2023-12-29T08:28:06;6.40;1.00
10566;DHT22;5331;48.148;16.326;2023-12-29T08:30:34;6.30;1.00
10566;DHT22;5331;48.148;16.326;2023-12-29T08:33:01;6.20;1.00
10566;DHT22;5331;48.148;16.326;2023-12-29T08:35:28;6.10;1.00
10566;DHT22;5331;48.148;16.326;2023-12-29T08:53:23;6.60;1.00
10566;DHT22;5331;48.148;16.326;2023-12-29T08:55:49;6.50;1.00
10566;DHT22;5331;48.148;16.326;2023-12-29T08:58:15;6.40;1.00
10566;DHT22;5331;48.148;16.326;2023-12-29T09:00:41;6.40;1.00
10566;DHT22;5331;48.148;16.326;2023-12-29T09:03:08;6.30;1.00
10566;DHT22;5331;48.148;16.326;2023-12-29T09:05:34;6.30;1.00
10566;DHT22;5331;48.148;16.326;2023-12-29T09:08:00;6.40;1.00
10566;DHT22;5331;48.148;16.326;2023-12-29T09:28:04;6.90;1.00
10566;DHT22;5331;48.148;16.326;2023-12-29T09:30:30;7.00;1.00
10566;DHT22;5331;48.148;16.326;2023-12-29T09:32:56;7.10;1.00
10566;DHT22;5331;48.148;16.326;2023-12-29T09:35:22;7.10;1.00
10566;DHT22;5331;48.148;16.326;2023-12-29T09:37:49;7.10;1.00
10566;DHT22;5331;48.148;16.326;2023-12-29T09:40:16;7.20;1.00
10566;DHT22;5331;48.148;16.326;2023-12-29T09:42:43;7.10;1.00
10566;DHT22;5331;48.148;16.326;2023-12-29T09:58:25;8.20;1.00
10566;DHT22;5331;48.148;16.326;2023-12-29T10:00:52;8.20;1.00
10566;DHT22;5331;48.148;16.326;2023-12-29T10:03:19;8.30;1.00
10566;DHT22;5331;48.148;16.326;2023-12-29T10:05:50;8.30;1.00
10566;DHT22;5331;48.148;16.326;2023-12-29T10:08:17;8.40;1.00
10566;DHT22;5331;48.148;16.326;2023-12-29T10:10:43;8.60;1.00
10566;DHT22;5331;48.148;16.326;2023-12-29T10:13:11;8.90;1.00
10566;DHT22;5331;48.148;16.326;2023-12-29T10:33:27;9.40;1.00
10566;DHT22;5331;48.148;16.326;2023-12-29T10:35:59;9.70;1.00
10566;DHT22;5331;48.148;16.326;2023-12-29T10:38:28;10.10;1.00
10566;DHT22;5331;48.148;16.326;2023-12-29T10:40:54;10.40;1.00
10566;DHT22;5331;48.148;16.326;2023-12-29T10:43:23;10.60;1.00
10566;DHT22;5331;48.148;16.326;2023-12-29T10:45:49;10.80;1.00
10566;DHT22;5331;48.148;16.326;2023-12-29T11:01:41;13.80;1.00
10566;DHT22;5331;48.148;16.326;2023-12-29T11:04:07;14.10;1.00
10566;DHT22;5331;48.148;16.326;2023-12-29T11:06:40;14.30;1.00
10566;DHT22;5331;48.148;16.326;2023-12-29T11:09:07;14.60;1.00
10566;DHT22;5331;48.148;16.326;2023-12-29T11:11:35;14.90;1.00
10566;DHT22;5331;48.148;16.326;2023-12-29T11:14:02;15.10;1.00
10566;DHT22;5331;48.148;16.326;2023-12-29T11:16:29;15.30;1.00
10566;DHT22;5331;48.148;16.326;2023-12-29T11:36:10;16.50;1.00
10566;DHT22;5331;48.148;16.326;2023-12-29T11:38:50;16.60;1.00
10566;DHT22;5331;48.148;16.326;2023-12-29T11:41:22;16.80;1.00
10566;DHT22;5331;48.148;16.326;2023-12-29T11:43:56;16.90;1.00
10566;DHT22;5331;48.148;16.326;2023-12-29T11:46:33;16.90;1.00
10566;DHT22;5331;48.148;16.326;2023-12-29T11:49:00;16.70;1.00
10566;DHT22;5331;48.148;16.326;2023-12-29T11:51:31;16.70;1.00
10566;DHT22;5331;48.148;16.326;2023-12-29T12:09:27;16.80;1.00
10566;DHT22;5331;48.148;16.326;2023-12-29T12:11:53;16.60;1.00
10566;DHT22;5331;48.148;16.326;2023-12-29T12:14:45;16.50;1.00
10566;DHT22;5331;48.148;16.326;2023-12-29T12:17:11;16.40;1.00
10566;DHT22;5331;48.148;16.326;2023-12-29T12:19:38;16.30;1.00
10566;DHT22;5331;48.148;16.326;2023-12-29T12:22:06;16.20;1.00
10566;DHT22;5331;48.148;16.326;2023-12-29T12:24:36;16.10;1.00
10566;DHT22;5331;48.148;16.326;2023-12-29T12:42:30;16.20;1.00
10566;DHT22;5331;48.148;16.326;2023-12-29T12:45:04;15.90;1.00
10566;DHT22;5331;48.148;16.326;2023-12-29T12:47:34;15.80;1.00
10566;DHT22;5331;48.148;16.326;2023-12-29T12:50:02;15.80;1.00
10566;DHT22;5331;48.148;16.326;2023-12-29T12:52:31;15.70;1.00
10566;DHT22;5331;48.148;16.326;2023-12-29T12:54:57;15.70;1.00
10566;DHT22;5331;48.148;16.326;2023-12-29T12:57:24;15.60;1.00
10566;DHT22;5331;48.148;16.326;2023-12-29T13:17:50;15.20;1.00
10566;DHT22;5331;48.148;16.326;2023-12-29T13:20:16;15.20;1.00
10566;DHT22;5331;48.148;16.326;2023-12-29T13:22:43;15.20;1.00
10566;DHT22;5331;48.148;16.326;2023-12-29T13:25:10;15.20;1.00
10566;DHT22;5331;48.148;16.326;2023-12-29T13:27:38;15.20;1.00
10566;DHT22;5331;48.148;16.326;2023-12-29T13:30:06;15.10;1.00
10566;DHT22;5331;48.148;16.326;2023-12-29T13:32:33;15.00;1.00
10566;DHT22;5331;48.148;16.326;2023-12-29T13:50:33;14.70;1.00
10566;DHT22;5331;48.148;16.326;2023-12-29T13:53:00;14.40;1.00
10566;DHT22;5331;48.148;16.326;2023-12-29T13:55:26;13.90;1.00
10566;DHT22;5331;48.148;16.326;2023-12-29T13:57:53;13.90;1.00
10566;DHT22;5331;48.148;16.326;2023-12-29T14:00:20;13.70;1.00
10566;DHT22;5331;48.148;16.326;2023-12-29T14:02:56;13.60;1.00
10566;DHT22;5331;48.148;16.326;2023-12-29T14:05:24;13.40;1.00
10566;DHT22;5331;48.148;16.326;2023-12-29T14:23:22;13.10;1.00
10566;DHT22;5331;48.148;16.326;2023-12-29T14:25:48;12.90;1.00
10566;DHT22;5331;48.148;16.326;2023-12-29T14:28:15;12.80;1.00
10566;DHT22;5331;48.148;16.326;2023-12-29T14:30:42;12.60;1.00
10566;DHT22;5331;48.148;16.326;2023-12-29T14:33:08;12.50;1.00
10566;DHT22;5331;48.148;16.326;2023-12-29T14:35:35;12.40;1.00
10566;DHT22;5331;48.148;16.326;2023-12-29T14:38:01;12.20;1.00
10566;DHT22;5331;48.148;16.326;2023-12-29T14:40:28;12.20;1.00
10566;DHT22;5331;48.148;16.326;2023-12-29T14:58:24;11.80;1.00
10566;DHT22;5331;48.148;16.326;2023-12-29T15:00:50;11.60;1.00
10566;DHT22;5331;48.148;16.326;2023-12-29T15:03:16;11.50;1.00
10566;DHT22;5331;48.148;16.326;2023-12-29T15:05:45;11.50;1.00
10566;DHT22;5331;48.148;16.326;2023-12-29T15:08:11;11.40;1.00
10566;DHT22;5331;48.148;16.326;2023-12-29T15:10:38;11.30;1.00
10566;DHT22;5331;48.148;16.326;2023-12-29T15:13:04;11.30;1.00
10566;DHT22;5331;48.148;16.326;2023-12-29T15:31:00;11.30;1.00
10566;DHT22;5331;48.148;16.326;2023-12-29T15:33:26;11.10;1.00
10566;DHT22;5331;48.148;16.326;2023-12-29T15:35:52;10.90;1.00
10566;DHT22;5331;48.148;16.326;2023-12-29T15:38:19;10.80;1.00
10566;DHT22;5331;48.148;16.326;2023-12-29T15:40:45;10.80;1.00
10566;DHT22;5331;48.148;16.326;2023-12-29T15:43:11;10.80;1.00
10566;DHT22;5331;48.148;16.326;2023-12-29T15:45:37;10.80;1.00
10566;DHT22;5331;48.148;16.326;2023-12-29T16:01:08;11.70;1.00
10566;DHT22;5331;48.148;16.326;2023-12-29T16:03:34;11.60;1.00
10566;DHT22;5331;48.148;16.326;2023-12-29T16:06:00;11.50;1.00
10566;DHT22;5331;48.148;16.326;2023-12-29T16:08:28;11.40;1.00
10566;DHT22;5331;48.148;16.326;2023-12-29T16:10:54;11.30;1.00
10566;DHT22;5331;48.148;16.326;2023-12-29T16:13:20;11.20;1.00
10566;DHT22;5331;48.148;16.326;2023-12-29T16:15:47;11.10;1.00
10566;DHT22;5331;48.148;16.326;2023-12-29T16:36:09;10.40;1.00
10566;DHT22;5331;48.148;16.326;2023-12-29T16:38:36;10.30;1.00
10566;DHT22;5331;48.148;16.326;2023-12-29T16:41:02;10.30;1.00
10566;DHT22;5331;48.148;16.326;2023-12-29T16:43:28;10.10;1.00
10566;DHT22;5331;48.148;16.326;2023-12-29T16:45:55;10.00;1.00
10566;DHT22;5331;48.148;16.326;2023-12-29T16:48:21;9.90;1.00
10566;DHT22;5331;48.148;16.326;2023-12-29T16:50:48;9.80;1.00
10566;DHT22;5331;48.148;16.326;2023-12-29T17:10:40;9.40;1.00
10566;DHT22;5331;48.148;16.326;2023-12-29T17:13:07;9.20;1.00
10566;DHT22;5331;48.148;16.326;2023-12-29T17:15:33;9.00;1.00
10566;DHT22;5331;48.148;16.326;2023-12-29T17:17:59;9.00;1.00
10566;DHT22;5331;48.148;16.326;2023-12-29T17:20:26;9.00;1.00
10566;DHT22;5331;48.148;16.326;2023-12-29T17:22:52;8.80;1.00
10566;DHT22;5331;48.148;16.326;2023-12-29T17:25:18;8.60;1.00
10566;DHT22;5331;48.148;16.326;2023-12-29T17:43:14;8.30;1.00
10566;DHT22;5331;48.148;16.326;2023-12-29T17:45:40;8.30;1.00
10566;DHT22;5331;48.148;16.326;2023-12-29T17:48:07;8.20;1.00
10566;DHT22;5331;48.148;16.326;2023-12-29T17:50:33;8.10;1.00
10566;DHT22;5331;48.148;16.326;2023-12-29T17:53:00;8.10;1.00
10566;DHT22;5331;48.148;16.326;2023-12-29T17:55:26;7.90;1.00
10566;DHT22;5331;48.148;16.326;2023-12-29T17:57:52;7.90;1.00
10566;DHT22;5331;48.148;16.326;2023-12-29T18:13:24;7.80;1.00
10566;DHT22;5331;48.148;16.326;2023-12-29T18:15:50;7.60;1.00
10566;DHT22;5331;48.148;16.326;2023-12-29T18:18:17;7.40;1.00
10566;DHT22;5331;48.148;16.326;2023-12-29T18:20:43;7.40;1.00
10566;DHT22;5331;48.148;16.326;2023-12-29T18:23:14;7.30;1.00
10566;DHT22;5331;48.148;16.326;2023-12-29T18:25:40;7.30;1.00
10566;DHT22;5331;48.148;16.326;2023-12-29T18:28:06;7.20;1.00
10566;DHT22;5331;48.148;16.326;2023-12-29T18:46:03;7.00;1.00
10566;DHT22;5331;48.148;16.326;2023-12-29T18:48:29;6.90;1.00
10566;DHT22;5331;48.148;16.326;2023-12-29T18:50:55;6.80;1.00
10566;DHT22;5331;48.148;16.326;2023-12-29T18:53:21;6.80;1.00
10566;DHT22;5331;48.148;16.326;2023-12-29T18:55:48;6.80;1.00
10566;DHT22;5331;48.148;16.326;2023-12-29T18:58:14;6.80;1.00
10566;DHT22;5331;48.148;16.326;2023-12-29T19:00:40;6.70;1.00
10566;DHT22;5331;48.148;16.326;2023-12-29T19:20:56;6.50;1.00
10566;DHT22;5331;48.148;16.326;2023-12-29T19:23:22;6.30;1.00
10566;DHT22;5331;48.148;16.326;2023-12-29T19:25:48;6.20;1.00
10566;DHT22;5331;48.148;16.326;2023-12-29T19:28:16;6.20;1.00
10566;DHT22;5331;48.148;16.326;2023-12-29T19:30:42;6.20;1.00
10566;DHT22;5331;48.148;16.326;2023-12-29T19:33:08;6.00;1.00
10566;DHT22;5331;48.148;16.326;2023-12-29T19:35:35;6.00;1.00
10566;DHT22;5331;48.148;16.326;2023-12-29T19:52:08;5.80;1.00
10566;DHT22;5331;48.148;16.326;2023-12-29T19:54:35;5.70;1.00
10566;DHT22;5331;48.148;16.326;2023-12-29T19:57:02;5.70;1.00
10566;DHT22;5331;48.148;16.326;2023-12-29T19:59:29;5.60;1.00
10566;DHT22;5331;48.148;16.326;2023-12-29T20:01:55;5.60;1.00
10566;DHT22;5331;48.148;16.326;2023-12-29T20:04:21;5.60;1.00
10566;DHT22;5331;48.148;16.326;2023-12-29T20:06:47;5.50;1.00
10566;DHT22;5331;48.148;16.326;2023-12-29T20:27:10;5.40;1.00
10566;DHT22;5331;48.148;16.326;2023-12-29T20:29:38;5.30;1.00
10566;DHT22;5331;48.148;16.326;2023-12-29T20:32:05;5.20;1.00
10566;DHT22;5331;48.148;16.326;2023-12-29T20:34:32;5.20;1.00
10566;DHT22;5331;48.148;16.326;2023-12-29T20:36:59;5.10;1.00
10566;DHT22;5331;48.148;16.326;2023-12-29T20:39:25;5.10;1.00
10566;DHT22;5331;48.148;16.326;2023-12-29T20:41:52;5.00;1.00
10566;DHT22;5331;48.148;16.326;2023-12-29T21:02:12;5.00;1.00
10566;DHT22;5331;48.148;16.326;2023-12-29T21:04:39;4.90;1.00
10566;DHT22;5331;48.148;16.326;2023-12-29T21:07:06;4.80;1.00
10566;DHT22;5331;48.148;16.326;2023-12-29T21:09:33;4.80;1.00
10566;DHT22;5331;48.148;16.326;2023-12-29T21:11:59;4.90;1.00
10566;DHT22;5331;48.148;16.326;2023-12-29T21:14:26;4.90;1.00
10566;DHT22;5331;48.148;16.326;2023-12-29T21:16:52;4.90;1.00
10566;DHT22;5331;48.148;16.326;2023-12-29T21:34:47;4.90;1.00
10566;DHT22;5331;48.148;16.326;2023-12-29T21:37:13;4.80;1.00
10566;DHT22;5331;48.148;16.326;2023-12-29T21:39:41;4.80;1.00
10566;DHT22;5331;48.148;16.326;2023-12-29T21:42:07;4.80;1.00
10566;DHT22;5331;48.148;16.326;2023-12-29T21:44:33;4.70;1.00
10566;DHT22;5331;48.148;16.326;2023-12-29T21:47:00;4.60;1.00
10566;DHT22;5331;48.148;16.326;2023-12-29T21:49:27;4.60;1.00
10566;DHT22;5331;48.148;16.326;2023-12-29T22:04:56;4.30;1.00
10566;DHT22;5331;48.148;16.326;2023-12-29T22:09:49;4.20;1.00
10566;DHT22;5331;48.148;16.326;2023-12-29T22:12:15;4.20;1.00
10566;DHT22;5331;48.148;16.326;2023-12-29T22:14:41;4.20;1.00
10566;DHT22;5331;48.148;16.326;2023-12-29T22:17:08;4.20;1.00
10566;DHT22;5331;48.148;16.326;2023-12-29T22:19:34;4.10;1.00
10566;DHT22;5331;48.148;16.326;2023-12-29T22:39:47;4.00;1.00
10566;DHT22;5331;48.148;16.326;2023-12-29T22:42:13;3.70;1.00
10566;DHT22;5331;48.148;16.326;2023-12-29T22:44:40;3.70;1.00
10566;DHT22;5331;48.148;16.326;2023-12-29T22:47:08;3.60;1.00
10566;DHT22;5331;48.148;16.326;2023-12-29T22:49:35;3.60;1.00
10566;DHT22;5331;48.148;16.326;2023-12-29T22:52:02;3.60;1.00
10566;DHT22;5331;48.148;16.326;2023-12-29T22:54:28;3.60;1.00
10566;DHT22;5331;48.148;16.326;2023-12-29T22:56:55;3.60;1.00
10566;DHT22;5331;48.148;16.326;2023-12-29T23:17:15;3.60;1.00
10566;DHT22;5331;48.148;16.326;2023-12-29T23:19:42;3.50;1.00
10566;DHT22;5331;48.148;16.326;2023-12-29T23:22:09;3.50;1.00
10566;DHT22;5331;48.148;16.326;2023-12-29T23:24:36;3.40;1.00
10566;DHT22;5331;48.148;16.326;2023-12-29T23:27:02;3.40;1.00
10566;DHT22;5331;48.148;16.326;2023-12-29T23:29:29;3.30;1.00
10566;DHT22;5331;48.148;16.326;2023-12-29T23:31:55;3.30;1.00
10566;DHT22;5331;48.148;16.326;2023-12-29T23:52:13;3.40;1.00
10566;DHT22;5331;48.148;16.326;2023-12-29T23:54:40;3.40;1.00
10566;DHT22;5331;48.148;16.326;2023-12-29T23:57:06;3.30;1.00
10566;DHT22;5331;48.148;16.326;2023-12-29T23:59:32;3.30;1.00
